createdAt,value
2023-01-17T00:02:21.493Z,94915.00
2023-01-17T00:05:06.959Z,94918.00
2023-01-17T00:07:53.208Z,94916.00
2023-01-17T00:10:26.722Z,94916.00
2023-01-17T00:13:00.782Z,94913.00
2023-01-17T00:15:30.840Z,94918.00
2023-01-17T00:17:58.913Z,94920.00
2023-01-17T00:20:50.485Z,94914.00
2023-01-17T00:23:41.133Z,94938.00
2023-01-17T00:26:18.774Z,94935.00
2023-01-17T00:28:46.614Z,94935.00
2023-01-17T00:31:15.927Z,94941.00
2023-01-17T00:33:43.376Z,94947.00
2023-01-17T00:36:11.566Z,94934.00
2023-01-17T00:38:40.077Z,94932.00
2023-01-17T00:41:13.587Z,94948.00
2023-01-17T00:44:00.041Z,94945.00
2023-01-17T00:46:45.895Z,94955.00
2023-01-17T00:49:31.909Z,94960.00
2023-01-17T00:52:17.703Z,94958.00
2023-01-17T00:55:03.370Z,94966.00
2023-01-17T00:57:49.158Z,94963.00
2023-01-17T01:00:39.873Z,94973.00
2023-01-17T01:03:29.791Z,94977.00
2023-01-17T01:06:15.692Z,94980.00
2023-01-17T01:09:01.463Z,94976.00
2023-01-17T01:11:47.243Z,94985.00
2023-01-17T01:14:32.940Z,94989.00
2023-01-17T01:17:18.832Z,94990.00
2023-01-17T01:20:04.570Z,94998.00
2023-01-17T01:22:50.318Z,95001.00
2023-01-17T01:25:35.646Z,94990.00
2023-01-17T01:28:24.784Z,95001.00
2023-01-17T01:31:10.823Z,94995.00
2023-01-17T01:33:38.017Z,94997.00
2023-01-17T01:36:08.683Z,95005.00
2023-01-17T01:38:36.238Z,95007.00
2023-01-17T01:41:03.567Z,95020.00
2023-01-17T01:43:53.333Z,95025.00
2023-01-17T01:46:29.259Z,95025.00
2023-01-17T01:49:17.790Z,95028.00
2023-01-17T01:51:53.187Z,95032.00
2023-01-17T01:54:34.472Z,95023.00
2023-01-17T01:57:05.861Z,95025.00
2023-01-17T01:59:34.662Z,95031.00
2023-01-17T02:02:02.221Z,95020.00
2023-01-17T02:04:29.677Z,95018.00
2023-01-17T02:07:06.814Z,95032.00
2023-01-17T02:09:34.638Z,95024.00
2023-01-17T02:12:03.713Z,95026.00
2023-01-17T02:14:31.005Z,95024.00
2023-01-17T02:17:23.710Z,95023.00
2023-01-17T02:20:21.374Z,95031.00
2023-01-17T02:23:28.634Z,95024.00
2023-01-17T02:26:23.387Z,95025.00
2023-01-17T02:29:39.781Z,95032.00
2023-01-17T02:32:53.015Z,95035.00
2023-01-17T02:35:48.239Z,95039.00
2023-01-17T02:38:27.917Z,95033.00
2023-01-17T02:41:05.369Z,95039.00
2023-01-17T02:43:33.831Z,95034.00
2023-01-17T02:46:01.393Z,95030.00
2023-01-17T02:48:32.838Z,95023.00
2023-01-17T02:51:19.949Z,95034.00
2023-01-17T02:54:20.343Z,95033.00
2023-01-17T02:57:13.918Z,95022.00
2023-01-17T02:59:59.039Z,95035.00
2023-01-17T03:02:42.853Z,95035.00
2023-01-17T03:05:20.563Z,95031.00
2023-01-17T03:07:48.636Z,95040.00
2023-01-17T03:10:18.534Z,95032.00
2023-01-17T03:12:46.244Z,95035.00
2023-01-17T03:15:17.695Z,95027.00
2023-01-17T03:17:49.983Z,95037.00
2023-01-17T03:20:17.636Z,95038.00
2023-01-17T03:22:44.719Z,95031.00
2023-01-17T03:25:11.854Z,95021.00
2023-01-17T03:27:38.915Z,95032.00
2023-01-17T03:30:07.428Z,95025.00
2023-01-17T03:32:34.719Z,95028.00
2023-01-17T03:35:01.737Z,95034.00
2023-01-17T03:37:28.984Z,95030.00
2023-01-17T03:39:56.045Z,95032.00
2023-01-17T03:42:23.079Z,95028.00
2023-01-17T03:44:50.317Z,95026.00
2023-01-17T03:47:17.369Z,95028.00
2023-01-17T03:49:44.403Z,95030.00
2023-01-17T03:52:11.492Z,95030.00
2023-01-17T03:54:38.601Z,95042.00
2023-01-17T03:57:05.779Z,95032.00
2023-01-17T03:59:34.049Z,95042.00
2023-01-17T04:02:01.707Z,95026.00
2023-01-17T04:04:28.966Z,95021.00
2023-01-17T04:06:56.138Z,95032.00
2023-01-17T04:09:23.259Z,95029.00
2023-01-17T04:11:51.100Z,95025.00
2023-01-17T04:14:18.223Z,95029.00
2023-01-17T04:16:46.202Z,95028.00
2023-01-17T04:19:14.180Z,95027.00
2023-01-17T04:21:41.350Z,95031.00
2023-01-17T04:24:08.519Z,95029.00
2023-01-17T04:26:35.722Z,95013.00
2023-01-17T04:29:03.040Z,95030.00
2023-01-17T04:31:30.239Z,95029.00
2023-01-17T04:33:57.521Z,95022.00
2023-01-17T04:36:24.582Z,95039.00
2023-01-17T04:38:51.889Z,95015.00
2023-01-17T04:41:19.083Z,95031.00
2023-01-17T04:43:46.161Z,95027.00
2023-01-17T04:46:13.353Z,95028.00
2023-01-17T04:48:40.426Z,95028.00
2023-01-17T04:51:07.689Z,95041.00
2023-01-17T04:53:34.795Z,95038.00
2023-01-17T04:56:02.178Z,95043.00
2023-01-17T04:58:29.987Z,95042.00
2023-01-17T05:01:06.196Z,95034.00
2023-01-17T05:03:34.502Z,95041.00
2023-01-17T05:06:02.261Z,95039.00
2023-01-17T05:08:29.478Z,95044.00
2023-01-17T05:10:56.800Z,95043.00
2023-01-17T05:13:23.927Z,95051.00
2023-01-17T05:15:51.084Z,95046.00
2023-01-17T05:18:18.978Z,95053.00
2023-01-17T05:20:46.362Z,95049.00
2023-01-17T05:23:13.435Z,95053.00
2023-01-17T05:25:44.799Z,95063.00
2023-01-17T05:28:13.477Z,95060.00
2023-01-17T05:30:41.205Z,95070.00
2023-01-17T05:33:10.209Z,95076.00
2023-01-17T05:35:37.435Z,95069.00
2023-01-17T05:38:04.793Z,95073.00
2023-01-17T05:40:33.563Z,95079.00
2023-01-17T05:43:01.639Z,95085.00
2023-01-17T05:45:30.507Z,95081.00
2023-01-17T05:47:58.489Z,95087.00
2023-01-17T05:50:43.993Z,95088.00
2023-01-17T05:53:14.639Z,95079.00
2023-01-17T05:55:42.373Z,95091.00
2023-01-17T05:58:16.747Z,95086.00
2023-01-17T06:00:44.608Z,95089.00
2023-01-17T06:03:12.730Z,95097.00
2023-01-17T06:05:40.673Z,95098.00
2023-01-17T06:08:08.575Z,95103.00
2023-01-17T06:10:35.591Z,95094.00
2023-01-17T06:13:13.875Z,95111.00
2023-01-17T06:15:41.436Z,95104.00
2023-01-17T06:18:11.865Z,95102.00
2023-01-17T06:20:39.870Z,95118.00
2023-01-17T06:23:14.397Z,95120.00
2023-01-17T06:25:46.537Z,95127.00
2023-01-17T06:28:17.422Z,95126.00
2023-01-17T06:30:45.223Z,95131.00
2023-01-17T06:33:16.229Z,95139.00
2023-01-17T06:35:53.464Z,95137.00
2023-01-17T06:38:21.348Z,95152.00
2023-01-17T06:40:48.613Z,95138.00
2023-01-17T06:43:16.219Z,95133.00
2023-01-17T06:45:43.366Z,95138.00
2023-01-17T06:48:10.437Z,95140.00
2023-01-17T06:50:38.138Z,95134.00
2023-01-17T06:53:07.455Z,95150.00
2023-01-17T06:55:37.278Z,95158.00
2023-01-17T06:58:04.332Z,95160.00
2023-01-17T07:00:35.100Z,95163.00
2023-01-17T07:03:02.485Z,95156.00
2023-01-17T07:05:29.743Z,95156.00
2023-01-17T07:07:58.250Z,95158.00
2023-01-17T07:10:25.283Z,95149.00
2023-01-17T07:12:58.688Z,95139.00
2023-01-17T07:15:27.189Z,95138.00
2023-01-17T07:17:54.267Z,95142.00
2023-01-17T07:20:21.281Z,95148.00
2023-01-17T07:22:48.406Z,95144.00
2023-01-17T07:25:15.606Z,95134.00
2023-01-17T07:27:42.661Z,95137.00
2023-01-17T07:30:10.909Z,95128.00
2023-01-17T07:32:38.497Z,95139.00
2023-01-17T07:35:06.932Z,95135.00
2023-01-17T07:37:34.162Z,95136.00
2023-01-17T07:40:02.574Z,95135.00
2023-01-17T07:42:29.691Z,95143.00
2023-01-17T07:44:56.822Z,95132.00
2023-01-17T07:47:24.876Z,95139.00
2023-01-17T07:49:51.937Z,95130.00
2023-01-17T07:52:19.040Z,95128.00
2023-01-17T07:54:46.242Z,95131.00
2023-01-17T07:57:13.325Z,95119.00
2023-01-17T07:59:40.427Z,95125.00
2023-01-17T08:02:17.792Z,95130.00
2023-01-17T08:04:45.828Z,95127.00
2023-01-17T08:07:14.058Z,95123.00
2023-01-17T08:09:49.781Z,95116.00
2023-01-17T08:12:17.755Z,95123.00
2023-01-17T08:14:45.046Z,95114.00
2023-01-17T08:17:16.542Z,95118.00
2023-01-17T08:19:44.908Z,95104.00
2023-01-17T08:22:12.481Z,95122.00
2023-01-17T08:24:39.583Z,95125.00
2023-01-17T08:27:09.024Z,95124.00
2023-01-17T08:29:36.203Z,95125.00
2023-01-17T08:32:03.932Z,95112.00
2023-01-17T08:34:33.525Z,95116.00
2023-01-17T08:37:00.553Z,95100.00
2023-01-17T08:39:28.251Z,95091.00
2023-01-17T08:41:55.320Z,95090.00
2023-01-17T08:44:22.532Z,95096.00
2023-01-17T08:46:50.550Z,95090.00
2023-01-17T08:49:17.696Z,95090.00
2023-01-17T08:51:44.735Z,95088.00
2023-01-17T08:54:13.358Z,95086.00
2023-01-17T08:56:40.790Z,95077.00
2023-01-17T08:59:09.339Z,95089.00
2023-01-17T09:01:41.999Z,95084.00
2023-01-17T09:04:09.376Z,95087.00
2023-01-17T09:06:38.613Z,95086.00
2023-01-17T09:09:07.476Z,95079.00
2023-01-17T09:11:34.763Z,95090.00
2023-01-17T09:14:01.985Z,95089.00
2023-01-17T09:16:31.071Z,95086.00
2023-01-17T09:18:59.426Z,95080.00
2023-01-17T09:21:27.017Z,95082.00
2023-01-17T09:23:55.662Z,95085.00
2023-01-17T09:26:25.300Z,95076.00
2023-01-17T09:28:53.029Z,95081.00
2023-01-17T09:31:21.736Z,95078.00
2023-01-17T09:33:50.102Z,95085.00
2023-01-17T09:36:17.673Z,95074.00
2023-01-17T09:38:45.067Z,95068.00
2023-01-17T09:41:29.046Z,95070.00
2023-01-17T09:44:22.570Z,95063.00
2023-01-17T09:46:56.264Z,95059.00
2023-01-17T09:49:39.735Z,95077.00
2023-01-17T09:52:09.280Z,95078.00
2023-01-17T09:54:46.229Z,95071.00
2023-01-17T09:57:52.832Z,95066.00
2023-01-17T10:00:31.937Z,95055.00
2023-01-17T10:03:23.076Z,95052.00
2023-01-17T10:06:23.820Z,95044.00
2023-01-17T10:09:18.903Z,95033.00
2023-01-17T10:12:16.455Z,95038.00
2023-01-17T10:14:58.447Z,95041.00
2023-01-17T10:17:39.217Z,95022.00
2023-01-17T10:20:34.354Z,95015.00
2023-01-17T10:23:25.303Z,95003.00
2023-01-17T10:25:55.184Z,94982.00
2023-01-17T10:28:42.263Z,94988.00
2023-01-17T10:31:18.741Z,94990.00
2023-01-17T10:33:56.146Z,94984.00
2023-01-17T10:36:30.427Z,94989.00
2023-01-17T10:39:20.727Z,94994.00
2023-01-17T10:42:02.511Z,94993.00
2023-01-17T10:44:52.468Z,94986.00
2023-01-17T10:47:25.138Z,94973.00
2023-01-17T10:49:54.558Z,94967.00
2023-01-17T10:52:46.653Z,94951.00
2023-01-17T10:55:48.731Z,94948.00
2023-01-17T10:58:15.808Z,94940.00
2023-01-17T11:01:20.581Z,94929.00
2023-01-17T11:03:54.633Z,94914.00
2023-01-17T11:06:27.166Z,94910.00
2023-01-17T11:09:01.186Z,94913.00
2023-01-17T11:11:32.054Z,94900.00
2023-01-17T11:14:04.449Z,94898.00
2023-01-17T11:16:32.749Z,94892.00
2023-01-17T11:19:32.329Z,94883.00
2023-01-17T11:22:05.017Z,94877.00
2023-01-17T11:24:55.461Z,94861.00
2023-01-17T11:27:28.987Z,94837.00
2023-01-17T11:30:17.211Z,94817.00
2023-01-17T11:33:09.361Z,94824.00
2023-01-17T11:35:37.804Z,94831.00
2023-01-17T11:38:19.041Z,94841.00
2023-01-17T11:40:48.525Z,94836.00
2023-01-17T11:43:27.256Z,94845.00
2023-01-17T11:46:18.098Z,94854.00
2023-01-17T11:48:56.334Z,94864.00
2023-01-17T11:51:33.671Z,94860.00
2023-01-17T11:54:29.234Z,94875.00
2023-01-17T11:57:01.135Z,94874.00
2023-01-17T11:59:37.684Z,94863.00
2023-01-17T12:02:41.453Z,94870.00
2023-01-17T12:06:05.056Z,94858.00
2023-01-17T12:09:22.870Z,94849.00
2023-01-17T12:12:14.320Z,94859.00
2023-01-17T12:15:04.604Z,94852.00
2023-01-17T12:18:13.630Z,94834.00
2023-01-17T12:21:08.108Z,94829.00
2023-01-17T12:23:38.805Z,94817.00
2023-01-17T12:26:44.139Z,94819.00
2023-01-17T12:29:54.699Z,94822.00
2023-01-17T12:32:48.772Z,94807.00
2023-01-17T12:35:32.467Z,94798.00
2023-01-17T12:38:27.462Z,94798.00
2023-01-17T12:41:26.743Z,94793.00
2023-01-17T12:44:01.163Z,94784.00
2023-01-17T12:46:44.121Z,94783.00
2023-01-17T12:49:32.694Z,94771.00
2023-01-17T12:52:17.228Z,94758.00
2023-01-17T12:54:51.951Z,94766.00
2023-01-17T12:57:37.839Z,94753.00
2023-01-17T13:00:19.926Z,94740.00
2023-01-17T13:03:40.575Z,94737.00
2023-01-17T13:06:08.395Z,94724.00
2023-01-17T13:08:44.256Z,94712.00
2023-01-17T13:11:23.288Z,94699.00
2023-01-17T13:13:52.372Z,94684.00
2023-01-17T13:16:36.997Z,94690.00
2023-01-17T13:19:31.258Z,94672.00
2023-01-17T13:21:59.781Z,94674.00
2023-01-17T13:25:00.401Z,94680.00
2023-01-17T13:28:08.249Z,94676.00
2023-01-17T13:31:09.196Z,94685.00
2023-01-17T13:34:19.104Z,94685.00
2023-01-17T13:37:04.893Z,94692.00
2023-01-17T13:39:43.968Z,94700.00
2023-01-17T13:42:34.188Z,94706.00
2023-01-17T13:45:18.667Z,94709.00
2023-01-17T13:47:45.764Z,94708.00
2023-01-17T13:50:40.807Z,94712.00
2023-01-17T13:53:29.211Z,94711.00
2023-01-17T13:56:29.268Z,94721.00
2023-01-17T13:59:02.706Z,94722.00
2023-01-17T14:01:34.817Z,94719.00
2023-01-17T14:04:07.225Z,94710.00
2023-01-17T14:06:46.123Z,94710.00
2023-01-17T14:09:20.284Z,94700.00
2023-01-17T14:12:10.795Z,94696.00
2023-01-17T14:14:41.098Z,94683.00
2023-01-17T14:17:20.690Z,94679.00
2023-01-17T14:20:19.032Z,94677.00
2023-01-17T14:22:55.921Z,94684.00
2023-01-17T14:25:30.267Z,94682.00
2023-01-17T14:28:43.858Z,94681.00
2023-01-17T14:31:11.787Z,94685.00
2023-01-17T14:33:40.879Z,94681.00
2023-01-17T14:36:22.118Z,94676.00
2023-01-17T14:38:49.352Z,94669.00
2023-01-17T14:41:25.809Z,94669.00
2023-01-17T14:43:53.323Z,94660.00
2023-01-17T14:46:27.895Z,94668.00
2023-01-17T14:49:25.990Z,94658.00
2023-01-17T14:52:04.208Z,94648.00
2023-01-17T14:54:31.339Z,94641.00
2023-01-17T14:57:28.815Z,94643.00
2023-01-17T15:00:21.484Z,94627.00
2023-01-17T15:02:49.309Z,94627.00
2023-01-17T15:05:20.701Z,94610.00
2023-01-17T15:07:55.122Z,94595.00
2023-01-17T15:10:32.076Z,94588.00
2023-01-17T15:13:08.146Z,94570.00
2023-01-17T15:15:39.849Z,94571.00
2023-01-17T15:18:22.156Z,94564.00
2023-01-17T15:21:03.042Z,94555.00
2023-01-17T15:23:37.014Z,94551.00
2023-01-17T15:26:07.299Z,94560.00
2023-01-17T15:28:35.887Z,94561.00
2023-01-17T15:31:13.721Z,94548.00
2023-01-17T15:33:47.816Z,94538.00
2023-01-17T15:36:25.498Z,94518.00
2023-01-17T15:39:05.420Z,94517.00
2023-01-17T15:41:37.252Z,94512.00
2023-01-17T15:44:05.792Z,94515.00
2023-01-17T15:46:45.074Z,94518.00
2023-01-17T15:49:24.866Z,94521.00
2023-01-17T15:52:02.293Z,94517.00
2023-01-17T15:54:29.348Z,94514.00
2023-01-17T15:57:18.132Z,94511.00
2023-01-17T15:59:56.592Z,94511.00
2023-01-17T16:02:43.580Z,94498.00
2023-01-17T16:05:30.978Z,94495.00
2023-01-17T16:08:25.640Z,94476.00
2023-01-17T16:11:02.685Z,94473.00
2023-01-17T16:13:38.685Z,94455.00
2023-01-17T16:16:29.917Z,94434.00
2023-01-17T16:19:02.234Z,94425.00
2023-01-17T16:21:31.509Z,94443.00
2023-01-17T16:24:00.238Z,94452.00
2023-01-17T16:26:29.258Z,94454.00
2023-01-17T16:28:57.032Z,94454.00
2023-01-17T16:31:24.142Z,94450.00
2023-01-17T16:33:52.233Z,94452.00
2023-01-17T16:36:21.057Z,94465.00
2023-01-17T16:38:51.448Z,94470.00
2023-01-17T16:41:19.515Z,94463.00
2023-01-17T16:43:48.307Z,94460.00
2023-01-17T16:46:15.613Z,94455.00
2023-01-17T16:48:42.779Z,94458.00
2023-01-17T16:51:10.006Z,94446.00
2023-01-17T16:53:37.675Z,94446.00
2023-01-17T16:56:13.767Z,94445.00
2023-01-17T16:58:41.693Z,94456.00
2023-01-17T17:01:17.614Z,94459.00
2023-01-17T17:03:45.307Z,94461.00
2023-01-17T17:06:13.329Z,94461.00
2023-01-17T17:08:40.404Z,94455.00
2023-01-17T17:11:17.540Z,94466.00
2023-01-17T17:13:48.187Z,94462.00
2023-01-17T17:16:26.533Z,94468.00
2023-01-17T17:19:02.496Z,94464.00
2023-01-17T17:21:32.013Z,94465.00
2023-01-17T17:24:01.529Z,94469.00
2023-01-17T17:26:35.571Z,94474.00
2023-01-17T17:29:04.446Z,94478.00
2023-01-17T17:31:31.866Z,94462.00
2023-01-17T17:34:04.265Z,94481.00
2023-01-17T17:36:31.623Z,94477.00
2023-01-17T17:38:59.433Z,94482.00
2023-01-17T17:41:32.191Z,94480.00
2023-01-17T17:44:01.982Z,94481.00
2023-01-17T17:46:30.365Z,94470.00
2023-01-17T17:48:58.573Z,94471.00
2023-01-17T17:51:37.440Z,94470.00
2023-01-17T17:54:08.113Z,94466.00
2023-01-17T17:56:36.806Z,94467.00
2023-01-17T17:59:06.676Z,94463.00
2023-01-17T18:01:38.173Z,94461.00
2023-01-17T18:04:07.780Z,94464.00
2023-01-17T18:06:36.024Z,94470.00
2023-01-17T18:09:04.863Z,94470.00
2023-01-17T18:11:32.018Z,94476.00
2023-01-17T18:14:01.950Z,94476.00
2023-01-17T18:16:37.867Z,94487.00
2023-01-17T18:19:06.352Z,94484.00
2023-01-17T18:21:36.903Z,94484.00
2023-01-17T18:24:08.292Z,94494.00
2023-01-17T18:26:39.023Z,94495.00
2023-01-17T18:29:09.648Z,94500.00
2023-01-17T18:31:37.179Z,94503.00
2023-01-17T18:34:08.581Z,94510.00
2023-01-17T18:36:36.580Z,94500.00
2023-01-17T18:39:17.902Z,94490.00
2023-01-17T18:41:45.521Z,94478.00
2023-01-17T18:44:12.765Z,94491.00
2023-01-17T18:46:40.441Z,94498.00
2023-01-17T18:49:11.043Z,94498.00
2023-01-17T18:51:38.965Z,94497.00
2023-01-17T18:54:08.972Z,94508.00
2023-01-17T18:56:36.264Z,94510.00
2023-01-17T18:59:09.023Z,94517.00
2023-01-17T19:01:36.759Z,94517.00
2023-01-17T19:04:06.070Z,94513.00
2023-01-17T19:06:40.332Z,94527.00
2023-01-17T19:09:08.839Z,94539.00
2023-01-17T19:11:36.924Z,94542.00
2023-01-17T19:14:05.452Z,94552.00
2023-01-17T19:16:39.428Z,94546.00
2023-01-17T19:19:10.491Z,94552.00
2023-01-17T19:21:37.922Z,94552.00
2023-01-17T19:24:05.439Z,94562.00
2023-01-17T19:26:33.326Z,94551.00
2023-01-17T19:29:00.719Z,94557.00
2023-01-17T19:31:30.270Z,94563.00
2023-01-17T19:33:59.617Z,94555.00
2023-01-17T19:36:34.725Z,94557.00
2023-01-17T19:39:05.932Z,94564.00
2023-01-17T19:41:35.407Z,94564.00
2023-01-17T19:44:14.248Z,94551.00
2023-01-17T19:46:41.468Z,94553.00
2023-01-17T19:49:09.838Z,94555.00
2023-01-17T19:51:37.379Z,94565.00
2023-01-17T19:54:06.592Z,94564.00
2023-01-17T19:56:33.950Z,94563.00
2023-01-17T19:59:02.113Z,94564.00
2023-01-17T20:01:32.529Z,94560.00
2023-01-17T20:04:01.689Z,94560.00
2023-01-17T20:06:36.042Z,94575.00
2023-01-17T20:09:04.611Z,94571.00
2023-01-17T20:11:32.327Z,94577.00
2023-01-17T20:14:00.425Z,94586.00
2023-01-17T20:16:30.857Z,94587.00
2023-01-17T20:18:59.391Z,94595.00
2023-01-17T20:21:28.855Z,94606.00
2023-01-17T20:23:58.878Z,94616.00
2023-01-17T20:26:34.803Z,94609.00
2023-01-17T20:29:15.214Z,94614.00
2023-01-17T20:31:43.984Z,94614.00
2023-01-17T20:34:13.785Z,94618.00
2023-01-17T20:36:42.193Z,94620.00
2023-01-17T20:39:11.150Z,94617.00
2023-01-17T20:41:41.187Z,94616.00
2023-01-17T20:44:12.981Z,94612.00
2023-01-17T20:46:43.617Z,94619.00
2023-01-17T20:49:18.879Z,94612.00
2023-01-17T20:51:47.390Z,94621.00
2023-01-17T20:54:18.402Z,94620.00
2023-01-17T20:56:47.739Z,94622.00
2023-01-17T20:59:18.751Z,94624.00
2023-01-17T21:01:46.662Z,94627.00
2023-01-17T21:04:14.938Z,94634.00
2023-01-17T21:06:44.000Z,94636.00
2023-01-17T21:09:14.977Z,94640.00
2023-01-17T21:11:43.482Z,94637.00
2023-01-17T21:14:10.597Z,94634.00
2023-01-17T21:16:37.912Z,94629.00
2023-01-17T21:19:06.037Z,94632.00
2023-01-17T21:21:33.215Z,94628.00
2023-01-17T21:24:00.610Z,94628.00
2023-01-17T21:26:28.946Z,94627.00
2023-01-17T21:28:56.574Z,94634.00
2023-01-17T21:31:28.249Z,94646.00
2023-01-17T21:33:57.277Z,94636.00
2023-01-17T21:36:32.696Z,94641.00
2023-01-17T21:39:04.848Z,94640.00
2023-01-17T21:41:38.891Z,94654.00
2023-01-17T21:44:19.455Z,94660.00
2023-01-17T21:46:47.698Z,94664.00
2023-01-17T21:49:15.448Z,94672.00
2023-01-17T21:51:52.642Z,94681.00
2023-01-17T21:54:44.808Z,94688.00
2023-01-17T21:57:37.186Z,94680.00
2023-01-17T22:00:12.124Z,94674.00
2023-01-17T22:02:40.054Z,94681.00
2023-01-17T22:05:09.141Z,94689.00
2023-01-17T22:07:39.038Z,94685.00
2023-01-17T22:10:07.066Z,94689.00
2023-01-17T22:12:34.245Z,94688.00
2023-01-17T22:15:01.281Z,94683.00
2023-01-17T22:17:30.734Z,94696.00
2023-01-17T22:19:57.900Z,94695.00
2023-01-17T22:22:24.915Z,94701.00
2023-01-17T22:24:52.073Z,94704.00
2023-01-17T22:27:20.625Z,94698.00
2023-01-17T22:29:47.860Z,94693.00
2023-01-17T22:32:14.898Z,94701.00
2023-01-17T22:34:41.904Z,94708.00
2023-01-17T22:37:10.208Z,94722.00
2023-01-17T22:39:38.852Z,94715.00
2023-01-17T22:42:08.371Z,94721.00
2023-01-17T22:44:35.511Z,94721.00
2023-01-17T22:47:03.283Z,94720.00
2023-01-17T22:49:30.401Z,94719.00
2023-01-17T22:51:57.505Z,94729.00
2023-01-17T22:54:24.585Z,94728.00
2023-01-17T22:56:51.654Z,94725.00
2023-01-17T22:59:18.745Z,94727.00
2023-01-17T23:01:45.864Z,94728.00
2023-01-17T23:04:16.035Z,94723.00
2023-01-17T23:06:43.614Z,94731.00
2023-01-17T23:09:14.728Z,94720.00
2023-01-17T23:11:47.189Z,94717.00
2023-01-17T23:14:54.243Z,94705.00
2023-01-17T23:17:42.695Z,94713.00
2023-01-17T23:20:11.799Z,94717.00
2023-01-17T23:22:39.107Z,94716.00
2023-01-17T23:25:14.215Z,94713.00
2023-01-17T23:28:04.729Z,94724.00
2023-01-17T23:30:36.085Z,94708.00
2023-01-17T23:33:09.458Z,94710.00
2023-01-17T23:35:42.176Z,94711.00
2023-01-17T23:38:26.750Z,94727.00
2023-01-17T23:41:20.198Z,94722.00
2023-01-17T23:43:54.443Z,94729.00
2023-01-17T23:46:22.531Z,94721.00
2023-01-17T23:48:49.876Z,94721.00
2023-01-17T23:51:17.016Z,94721.00
2023-01-17T23:53:44.278Z,94730.00
2023-01-17T23:56:19.821Z,94720.00
2023-01-17T23:58:47.470Z,94716.00
